»·PEaware :: CGFWS KBLI-KBFI

CGFWS :: KBLI-KBFI

FLIGHT INFORMATION

Flight Status: Arrived
Operator: Unknown
More flights by this operator :: More flights under this callsign
Pilot: Anonymous 35050 (35050)
Aircraft: CESSNA 182 SKYLANE
(C182)
More flights by this aircraft type
Origin: KBLI Bellingham Intl
United States
Destination: KBFI Boeing Field/King Co Intl
United States
More flights between these airports :: More routes between these airports
Route: KIENO6 CVV V165 DIGGN V4 SEA
File this flight plan on PilotEdge
Remarks:
Altitude:
(Current/Filed)
5,000ft
Speed:
(Current/Filed)
120kts
Departed: 30-May-23 04:08 PM
Arrived: 30-May-23 05:03 PM
Distance/Time
Traveled:
76nm/0:55
Distance/Time
To Go:
Arrived

Flight Plot

Page will automatically refresh every two minutes.

Flight plan parsing failed; only flown route is shown


Map Options




Map Legend


Flown Route
Filed Route
Departure Airport
Arrival Airport
Navaid (VOR, NDB)
Fix

Horizontal Profiles

Position Reports

Time Latitude Longitude Heading Altitude Ground
Speed
30-May-23 15:40 48.794186 -122.533776 290 173ft 0kts
30-May-23 15:41 48.794186 -122.533779 290 173ft 0kts
30-May-23 15:42 48.794187 -122.533782 290 173ft 0kts
30-May-23 15:43 48.794188 -122.533784 290 173ft 0kts
30-May-23 15:44 48.794188 -122.533785 290 173ft 0kts
30-May-23 15:45 48.794188 -122.533786 290 173ft 0kts
30-May-23 15:46 48.794188 -122.533786 290 173ft 0kts
30-May-23 15:47 48.794189 -122.533788 290 173ft 0kts
30-May-23 15:48 48.794189 -122.533791 290 173ft 0kts
30-May-23 15:49 48.794190 -122.533794 290 173ft 0kts
30-May-23 15:50 48.794191 -122.533797 290 173ft 0kts
30-May-23 15:51 48.794192 -122.533800 290 173ft 0kts
30-May-23 15:52 48.794192 -122.533803 290 173ft 0kts
30-May-23 15:53 48.794193 -122.533806 290 173ft 0kts
30-May-23 15:54 48.794194 -122.533809 290 173ft 0kts
30-May-23 15:55 48.794195 -122.533812 290 173ft 0kts
30-May-23 15:56 48.794196 -122.533816 290 173ft 0kts
30-May-23 15:57 48.794197 -122.533819 290 173ft 0kts
30-May-23 15:58 48.794197 -122.533823 290 173ft 0kts
30-May-23 15:59 48.794198 -122.533826 290 173ft 0kts
30-May-23 16:00 48.794199 -122.533829 290 173ft 0kts
30-May-23 16:01 48.794199 -122.533831 290 173ft 0kts
30-May-23 16:02 48.794110 -122.535665 316 173ft 14kts
30-May-23 16:03 48.799882 -122.536078 359 173ft 21kts
30-May-23 16:04 48.801660 -122.536611 267 173ft 0kts
30-May-23 16:05 48.801660 -122.536613 267 173ft 0kts
30-May-23 16:06 48.801660 -122.536615 267 173ft 0kts
30-May-23 16:07 48.794715 -122.537657 183 313ft 74kts
30-May-23 16:08 48.767424 -122.549416 196 1039ft 135kts
30-May-23 16:09 48.732191 -122.563807 189 1607ft 116kts
30-May-23 16:10 48.702296 -122.571327 191 2300ft 104kts
30-May-23 16:11 48.675019 -122.579499 191 3070ft 95kts
30-May-23 16:12 48.649218 -122.587572 191 3784ft 94kts
30-May-23 16:13 48.623382 -122.596066 191 4481ft 94kts
30-May-23 16:14 48.597359 -122.606098 191 5010ft 111kts
30-May-23 16:15 48.562295 -122.619591 191 4999ft 139kts
30-May-23 16:16 48.523748 -122.634130 191 5001ft 144kts
30-May-23 16:17 48.484575 -122.648857 191 5000ft 145kts
30-May-23 16:18 48.445301 -122.663579 190 5000ft 145kts
30-May-23 16:19 48.405902 -122.677344 190 5000ft 145kts
30-May-23 16:20 48.366531 -122.691145 190 5000ft 145kts
30-May-23 16:21 48.327073 -122.703844 188 5000ft 145kts
30-May-23 16:22 48.287428 -122.715428 188 5000ft 145kts
30-May-23 16:23 48.247756 -122.727046 188 5000ft 145kts
30-May-23 16:24 48.208072 -122.737984 186 5000ft 144kts
30-May-23 16:25 48.168361 -122.747128 184 5001ft 144kts
30-May-23 16:26 48.128368 -122.753879 183 5000ft 144kts
30-May-23 16:27 48.088485 -122.760845 180 4997ft 144kts
30-May-23 16:28 48.048373 -122.764681 180 5000ft 144kts
30-May-23 16:29 48.018850 -122.737688 119 5003ft 133kts
30-May-23 16:30 47.998575 -122.691232 118 5001ft 134kts
30-May-23 16:31 47.978283 -122.644547 118 5000ft 134kts
30-May-23 16:32 47.958250 -122.598214 118 5085ft 135kts
30-May-23 16:33 47.937332 -122.550055 118 5081ft 139kts
30-May-23 16:34 47.916122 -122.501145 118 5011ft 138kts
30-May-23 16:35 47.895423 -122.453415 118 5017ft 136kts
30-May-23 16:36 47.874763 -122.405813 118 5023ft 138kts
30-May-23 16:37 47.853856 -122.357542 118 5022ft 139kts
30-May-23 16:38 47.832871 -122.308759 118 5021ft 140kts
30-May-23 16:39 47.811906 -122.259844 118 5020ft 140kts
30-May-23 16:40 47.790899 -122.211132 118 5019ft 140kts
30-May-23 16:42 47.769898 -122.162379 118 5020ft 140kts
30-May-23 16:43 47.748887 -122.113646 118 5020ft 140kts
30-May-23 16:44 47.727805 -122.064960 121 5020ft 140kts
30-May-23 16:45 47.688956 -122.055629 177 5028ft 151kts
30-May-23 16:46 47.646680 -122.056162 177 5022ft 152kts
30-May-23 16:47 47.604533 -122.056831 177 5020ft 151kts
30-May-23 16:48 47.562243 -122.057535 177 5020ft 151kts
30-May-23 16:49 47.519987 -122.058252 177 5020ft 151kts
30-May-23 16:50 47.477729 -122.058951 177 5020ft 151kts
30-May-23 16:51 47.435471 -122.059244 177 5019ft 151kts
30-May-23 16:52 47.393944 -122.059283 177 4504ft 137kts
30-May-23 16:53 47.357392 -122.058471 187 3813ft 135kts
30-May-23 16:54 47.337260 -122.103976 247 3138ft 140kts
30-May-23 16:55 47.351421 -122.149931 321 2393ft 117kts
30-May-23 16:56 47.377471 -122.173165 332 2020ft 106kts
30-May-23 16:57 47.403108 -122.194206 330 1985ft 99kts
30-May-23 16:58 47.426228 -122.213639 327 2013ft 98kts
30-May-23 16:59 47.449933 -122.237746 335 1784ft 108kts
30-May-23 17:00 47.474921 -122.258830 332 1206ft 84kts
30-May-23 17:01 47.497666 -122.275770 331 548ft 94kts
30-May-23 17:02 47.518110 -122.292804 329 46ft 63kts
30-May-23 17:03 47.525685 -122.299169 336 21ft 22kts
30-May-23 17:04 47.527488 -122.297469 4 21ft 10kts
30-May-23 17:05 47.529954 -122.299874 315 21ft 10kts
30-May-23 17:06 47.533866 -122.303024 332 21ft 22kts
30-May-23 17:06 47.536025 -122.304124 125 21ft 4kts

Navigation Log

Ident Type
Flight plan parsing failed, navigation log unavailable